METAR Reports From Nearby Airports

 

KLUD - Decatur, Texas, USA
Distance from Wildwood: IKA 5mi, 8km
Päivitetty: Aug 21, 2019 6:15pm
Partly Cloudy
Partly Cloudy
 Tuulen suunta KA
Tuuli: KA 9 mph , 15 km/h
Lämpötila: 97°F , 36°C
Kastepiste: 63°F , 17°C
Kosteus: 32%
Ilmanpaine: 29.91 inHg , 1012.9 hPa
Clouds: Partly Cloudy
Visibility: 7 miles , 11 km
Cloud details: Partly Cloudy 7500 ft
2019/08/21 23:15 KLUD 212315Z AUTO 13008KT 7SM SCT075 36/17 A2991 RMK AO2 T03630172
KXBP - Bridgeport, Texas, USA
Distance from Wildwood: LLO 11mi, 18km
Päivitetty: Aug 21, 2019 6:15pm
Haze, Selkeätä
Haze, Selkeätä
 Tuulen suunta KA
Tuuli: KA 10 mph , 17 km/h
Lämpötila: 97°F , 36°C
Kastepiste: 63°F , 17°C
Kosteus: 32%
Ilmanpaine: 29.91 inHg , 1012.9 hPa
Yhteenveto: Haze
Clouds: Selkeätä
Visibility: 2 1/2 miles , 4 km
2019/08/21 23:15 KXBP 212315Z AUTO 14009KT 2 1/2SM HZ CLR 36/17 A2991 RMK AO2 VIS 2V5 T03600171
 
K0F2 - Bowie, Texas, USA
Distance from Wildwood: PLU 24mi, 39km
Päivitetty: Aug 21, 2019 6:15pm
Partly Cloudy
Partly Cloudy
 Tuulen suunta IKA
Tuuli: IKA 7 mph , 11 km/h
Lämpötila: 97°F , 36°C
Kastepiste: 66°F , 19°C
Kosteus: 37%
Ilmanpaine: 29.90 inHg , 1012.5 hPa
Clouds: Partly Cloudy
Visibility: 10 miles , 16 km
Cloud details: Partly Cloudy 7500 ft
2019/08/21 23:15 K0F2 212315Z AUTO 11006KT 090V160 10SM SCT075 36/19 A2990 RMK AO2 T03590193
KDTO - Denton, Texas, USA
Distance from Wildwood: I 27mi, 44km
Päivitetty: Aug 21, 2019 5:53pm
Few Clouds
Few Clouds
 Tuulen suunta E
Tuuli: E 16 mph , 26 km/h, Puuskatuuli: 21 mph , 33 km/h
Lämpötila: 99°F , 37°C
Kastepiste: 66°F , 19°C
Kosteus: 35%
Ilmanpaine: 29.89 inHg , 1012.2 hPa
Clouds: Few Clouds
Visibility: 10 miles , 16 km
Cloud details: Few Clouds 7000 ft
2019/08/21 22:53 KDTO 212253Z 17014G18KT 10SM FEW070 37/19 A2989 RMK AO2 SLP112 T03670194
 
KAFW - Ft Worth/Allianc, Texas, USA
Distance from Wildwood: KA 29mi, 46km
Päivitetty: Aug 21, 2019 5:53pm
Partly Cloudy
Partly Cloudy
 Tuulen suunta E
Tuuli: E 9 mph , 15 km/h
Lämpötila: 99°F , 37°C
Kastepiste: 66°F , 19°C
Kosteus: 35%
Ilmanpaine: 29.89 inHg , 1012.2 hPa
Clouds: Partly Cloudy
Visibility: 10 miles , 16 km
Cloud details: Partly Cloudy 9000 ft
2019/08/21 22:53 KAFW 212253Z 18008KT 10SM SCT090 37/19 A2989 RMK AO2 SLP101 CB DSNT NE MOV N MDT CU OHD T03670189
KFTW - Fort Worth, Texas, USA
Distance from Wildwood: EKA 34mi, 55km
Päivitetty: Aug 21, 2019 5:53pm
Selkeätä
Selkeätä
 Tuulen suunta IKA
Tuuli: IKA 13 mph , 20 km/h
Lämpötila: 95°F , 35°C
Kastepiste: 66°F , 19°C
Kosteus: 39%
Ilmanpaine: 29.88 inHg , 1011.9 hPa
Clouds: Selkeätä
Visibility: 10 miles , 16 km
2019/08/21 22:53 KFTW 212253Z 12011KT 10SM CLR 35/19 A2988 RMK AO2 SLP107 T03500189
 
KNFW - Fort Worth Nas, Texas, USA
Distance from Wildwood: EKA 36mi, 58km
Päivitetty: Aug 21, 2019 5:52pm
Few Clouds
Few Clouds
 Tuulen suunta EKA
Tuuli: EKA 14 mph , 22 km/h, Puuskatuuli: 18 mph , 30 km/h
Lämpötila: 99°F , 37°C
Kastepiste: 63°F , 17°C
Kosteus: 31%
Ilmanpaine: 29.89 inHg , 1012.2 hPa
Clouds: Few Clouds
Visibility: 10 miles , 16 km
Cloud details: Few Clouds 8000 ft
2019/08/21 22:52 KNFW 212252Z 16012G16KT 10SM FEW080 37/17 A2989 RMK AO2 SLP106 T03720172 VISNO N $
KGLE - Gainesville, Texas, USA
Distance from Wildwood: KO 38mi, 61km
Päivitetty: Aug 21, 2019 6:15pm
Selkeätä
Selkeätä
 Tuulen suunta EKA
Tuuli: EKA 10 mph , 17 km/h, Puuskatuuli: 17 mph , 28 km/h
Lämpötila: 97°F , 36°C
Kastepiste: 64°F , 18°C
Kosteus: 34%
Ilmanpaine: 29.92 inHg , 1013.2 hPa
Clouds: Selkeätä
Visibility: 10 miles , 16 km
2019/08/21 23:15 KGLE 212315Z AUTO 15009G15KT 10SM CLR 36/18 A2992 RMK AO2 T03560183 PWINO
 
KMWL - Mineral Wells, Texas, USA
Distance from Wildwood: LO 41mi, 65km
Päivitetty: Aug 21, 2019 5:53pm
Selkeätä
Selkeätä
 Tuulen suunta KA
Tuuli: KA 12 mph , 19 km/h
Lämpötila: 99°F , 37°C
Kastepiste: 61°F , 16°C
Kosteus: 29%
Ilmanpaine: 29.88 inHg , 1011.9 hPa
Clouds: Selkeätä
Visibility: 10 miles , 16 km
2019/08/21 22:53 KMWL 212253Z AUTO 13010KT 10SM CLR 37/16 A2988 RMK AO2 SLP104 T03670161
KDFW - Dallas/Ft Worth, Texas, USA
Distance from Wildwood: IKA 45mi, 73km
Päivitetty: Aug 21, 2019 5:53pm
Partly Cloudy
Partly Cloudy
 Tuulen suunta IKA
Tuuli: IKA 10 mph , 17 km/h
Lämpötila: 97°F , 36°C
Kastepiste: 66°F , 19°C
Kosteus: 37%
Ilmanpaine: 29.88 inHg , 1011.9 hPa
Clouds: Partly Cloudy
Visibility: 10 miles , 16 km
Cloud details: Partly Cloudy 7000 ft
2019/08/21 22:53 KDFW 212253Z 11009KT 10SM SCT070 36/19 A2988 RMK AO2 SLP107 CB DSNT N T03610194